sensor_id;sensor_type;location;lat;lon;timestamp;P1;durP1;ratioP1;P2;durP2;ratioP2
72117;SDS011;59992;47.490;8.736;2024-03-25T00:02:35;2.00;;;1.30;;
72117;SDS011;59992;47.490;8.736;2024-03-25T00:05:23;4.10;;;0.90;;
72117;SDS011;59992;47.490;8.736;2024-03-25T00:08:13;1.40;;;1.00;;
72117;SDS011;59992;47.490;8.736;2024-03-25T00:11:01;2.20;;;1.30;;
72117;SDS011;59992;47.490;8.736;2024-03-25T00:13:49;3.50;;;1.00;;
72117;SDS011;59992;47.490;8.736;2024-03-25T00:16:38;2.40;;;1.00;;
72117;SDS011;59992;47.490;8.736;2024-03-25T00:19:26;2.20;;;1.10;;
72117;SDS011;59992;47.490;8.736;2024-03-25T00:22:14;3.30;;;1.30;;
72117;SDS011;59992;47.490;8.736;2024-03-25T00:25:02;4.50;;;0.90;;
72117;SDS011;59992;47.490;8.736;2024-03-25T00:27:51;2.40;;;1.00;;
72117;SDS011;59992;47.490;8.736;2024-03-25T00:30:39;3.90;;;1.40;;
72117;SDS011;59992;47.490;8.736;2024-03-25T00:33:27;3.90;;;1.20;;
72117;SDS011;59992;47.490;8.736;2024-03-25T00:36:14;4.30;;;1.20;;
72117;SDS011;59992;47.490;8.736;2024-03-25T00:39:03;2.70;;;1.60;;
72117;SDS011;59992;47.490;8.736;2024-03-25T00:41:52;2.50;;;1.30;;
72117;SDS011;59992;47.490;8.736;2024-03-25T00:44:41;2.50;;;1.10;;
72117;SDS011;59992;47.490;8.736;2024-03-25T00:47:29;4.70;;;1.50;;
72117;SDS011;59992;47.490;8.736;2024-03-25T00:50:17;2.20;;;1.10;;
72117;SDS011;59992;47.490;8.736;2024-03-25T00:53:05;2.20;;;0.90;;
72117;SDS011;59992;47.490;8.736;2024-03-25T00:55:54;4.00;;;1.00;;
72117;SDS011;59992;47.490;8.736;2024-03-25T00:58:43;3.30;;;1.10;;
72117;SDS011;59992;47.490;8.736;2024-03-25T01:01:33;3.90;;;1.00;;
72117;SDS011;59992;47.490;8.736;2024-03-25T01:04:22;2.80;;;1.00;;
72117;SDS011;59992;47.490;8.736;2024-03-25T01:07:10;2.40;;;0.70;;
72117;SDS011;59992;47.490;8.736;2024-03-25T01:09:59;2.50;;;1.00;;
72117;SDS011;59992;47.490;8.736;2024-03-25T01:12:47;2.10;;;0.80;;
72117;SDS011;59992;47.490;8.736;2024-03-25T01:15:35;2.10;;;1.10;;
72117;SDS011;59992;47.490;8.736;2024-03-25T01:18:23;1.90;;;0.70;;
72117;SDS011;59992;47.490;8.736;2024-03-25T01:21:12;1.80;;;0.90;;
72117;SDS011;59992;47.490;8.736;2024-03-25T01:24:01;3.60;;;1.20;;
72117;SDS011;59992;47.490;8.736;2024-03-25T01:26:49;2.70;;;1.00;;
72117;SDS011;59992;47.490;8.736;2024-03-25T01:29:37;2.20;;;0.80;;
72117;SDS011;59992;47.490;8.736;2024-03-25T01:32:25;3.50;;;0.80;;
72117;SDS011;59992;47.490;8.736;2024-03-25T01:35:14;2.40;;;0.80;;
72117;SDS011;59992;47.490;8.736;2024-03-25T01:38:03;2.70;;;0.90;;
72117;SDS011;59992;47.490;8.736;2024-03-25T01:40:51;1.50;;;0.80;;
72117;SDS011;59992;47.490;8.736;2024-03-25T01:43:40;2.30;;;1.20;;
72117;SDS011;59992;47.490;8.736;2024-03-25T01:46:28;3.50;;;0.80;;
72117;SDS011;59992;47.490;8.736;2024-03-25T01:49:17;3.90;;;1.20;;
72117;SDS011;59992;47.490;8.736;2024-03-25T01:52:07;3.20;;;1.10;;
72117;SDS011;59992;47.490;8.736;2024-03-25T01:54:55;3.20;;;1.00;;
72117;SDS011;59992;47.490;8.736;2024-03-25T01:57:44;4.90;;;1.60;;
72117;SDS011;59992;47.490;8.736;2024-03-25T02:00:34;3.10;;;1.50;;
72117;SDS011;59992;47.490;8.736;2024-03-25T02:03:24;3.10;;;1.50;;
72117;SDS011;59992;47.490;8.736;2024-03-25T02:06:13;2.80;;;1.10;;
72117;SDS011;59992;47.490;8.736;2024-03-25T02:09:03;3.40;;;1.10;;
72117;SDS011;59992;47.490;8.736;2024-03-25T02:11:52;2.10;;;1.20;;
72117;SDS011;59992;47.490;8.736;2024-03-25T02:14:42;2.70;;;0.90;;
72117;SDS011;59992;47.490;8.736;2024-03-25T02:17:30;2.20;;;0.80;;
72117;SDS011;59992;47.490;8.736;2024-03-25T02:20:18;3.20;;;1.00;;
72117;SDS011;59992;47.490;8.736;2024-03-25T02:23:06;2.10;;;0.90;;
72117;SDS011;59992;47.490;8.736;2024-03-25T02:25:57;2.50;;;0.80;;
72117;SDS011;59992;47.490;8.736;2024-03-25T02:28:45;2.00;;;0.90;;
72117;SDS011;59992;47.490;8.736;2024-03-25T02:31:33;1.70;;;1.00;;
72117;SDS011;59992;47.490;8.736;2024-03-25T02:34:21;2.40;;;1.00;;
72117;SDS011;59992;47.490;8.736;2024-03-25T02:37:09;2.30;;;0.80;;
72117;SDS011;59992;47.490;8.736;2024-03-25T02:39:58;1.40;;;1.00;;
72117;SDS011;59992;47.490;8.736;2024-03-25T02:42:47;1.50;;;0.80;;
72117;SDS011;59992;47.490;8.736;2024-03-25T02:45:36;2.60;;;0.80;;
72117;SDS011;59992;47.490;8.736;2024-03-25T02:48:25;1.80;;;0.90;;
72117;SDS011;59992;47.490;8.736;2024-03-25T02:51:13;2.40;;;1.00;;
72117;SDS011;59992;47.490;8.736;2024-03-25T02:54:02;2.60;;;1.20;;
72117;SDS011;59992;47.490;8.736;2024-03-25T02:56:50;3.30;;;0.90;;
72117;SDS011;59992;47.490;8.736;2024-03-25T02:59:39;2.00;;;0.80;;
72117;SDS011;59992;47.490;8.736;2024-03-25T03:02:28;2.50;;;0.80;;
72117;SDS011;59992;47.490;8.736;2024-03-25T03:05:16;3.90;;;1.10;;
72117;SDS011;59992;47.490;8.736;2024-03-25T03:08:05;1.90;;;1.20;;
72117;SDS011;59992;47.490;8.736;2024-03-25T03:10:53;2.00;;;0.90;;
72117;SDS011;59992;47.490;8.736;2024-03-25T03:13:41;2.40;;;1.00;;
72117;SDS011;59992;47.490;8.736;2024-03-25T03:16:29;3.20;;;1.10;;
72117;SDS011;59992;47.490;8.736;2024-03-25T03:19:17;1.90;;;0.90;;
72117;SDS011;59992;47.490;8.736;2024-03-25T03:22:06;1.40;;;0.90;;
72117;SDS011;59992;47.490;8.736;2024-03-25T03:24:54;1.80;;;1.00;;
72117;SDS011;59992;47.490;8.736;2024-03-25T03:27:42;1.90;;;1.00;;
72117;SDS011;59992;47.490;8.736;2024-03-25T03:30:30;1.20;;;0.80;;
72117;SDS011;59992;47.490;8.736;2024-03-25T03:33:19;2.70;;;1.00;;
72117;SDS011;59992;47.490;8.736;2024-03-25T03:36:08;2.10;;;0.90;;
72117;SDS011;59992;47.490;8.736;2024-03-25T03:38:56;3.40;;;1.00;;
72117;SDS011;59992;47.490;8.736;2024-03-25T03:41:44;3.50;;;1.20;;
72117;SDS011;59992;47.490;8.736;2024-03-25T03:44:32;2.60;;;1.20;;
72117;SDS011;59992;47.490;8.736;2024-03-25T03:47:20;4.10;;;1.00;;
72117;SDS011;59992;47.490;8.736;2024-03-25T03:50:09;2.40;;;1.00;;
72117;SDS011;59992;47.490;8.736;2024-03-25T03:52:57;2.50;;;1.00;;
72117;SDS011;59992;47.490;8.736;2024-03-25T03:55:53;2.90;;;1.30;;
72117;SDS011;59992;47.490;8.736;2024-03-25T03:58:42;2.90;;;1.10;;
72117;SDS011;59992;47.490;8.736;2024-03-25T04:01:30;3.20;;;1.50;;
72117;SDS011;59992;47.490;8.736;2024-03-25T04:04:18;2.20;;;1.40;;
72117;SDS011;59992;47.490;8.736;2024-03-25T04:07:06;2.60;;;1.30;;
72117;SDS011;59992;47.490;8.736;2024-03-25T04:09:54;2.20;;;1.00;;
72117;SDS011;59992;47.490;8.736;2024-03-25T04:12:45;4.00;;;1.40;;
72117;SDS011;59992;47.490;8.736;2024-03-25T04:15:36;1.80;;;1.20;;
72117;SDS011;59992;47.490;8.736;2024-03-25T04:18:24;3.10;;;1.30;;
72117;SDS011;59992;47.490;8.736;2024-03-25T04:21:13;2.20;;;1.00;;
72117;SDS011;59992;47.490;8.736;2024-03-25T04:24:02;2.30;;;1.10;;
72117;SDS011;59992;47.490;8.736;2024-03-25T04:26:53;2.00;;;0.90;;
72117;SDS011;59992;47.490;8.736;2024-03-25T04:29:43;2.00;;;1.00;;
72117;SDS011;59992;47.490;8.736;2024-03-25T04:32:31;3.30;;;1.20;;
72117;SDS011;59992;47.490;8.736;2024-03-25T04:35:19;3.00;;;1.30;;
72117;SDS011;59992;47.490;8.736;2024-03-25T04:38:07;2.00;;;1.10;;
72117;SDS011;59992;47.490;8.736;2024-03-25T04:40:57;2.70;;;1.10;;
72117;SDS011;59992;47.490;8.736;2024-03-25T04:43:45;3.00;;;1.10;;
72117;SDS011;59992;47.490;8.736;2024-03-25T04:46:33;2.40;;;1.00;;
72117;SDS011;59992;47.490;8.736;2024-03-25T04:49:22;2.50;;;1.20;;
72117;SDS011;59992;47.490;8.736;2024-03-25T04:52:10;2.50;;;1.30;;
72117;SDS011;59992;47.490;8.736;2024-03-25T04:55:00;2.10;;;0.90;;
72117;SDS011;59992;47.490;8.736;2024-03-25T04:57:48;2.50;;;1.30;;
72117;SDS011;59992;47.490;8.736;2024-03-25T05:00:36;2.70;;;1.70;;
72117;SDS011;59992;47.490;8.736;2024-03-25T05:03:24;2.00;;;0.90;;
72117;SDS011;59992;47.490;8.736;2024-03-25T05:06:12;4.20;;;1.20;;
72117;SDS011;59992;47.490;8.736;2024-03-25T05:09:03;1.90;;;1.00;;
72117;SDS011;59992;47.490;8.736;2024-03-25T05:11:53;1.90;;;1.10;;
72117;SDS011;59992;47.490;8.736;2024-03-25T05:14:41;2.20;;;1.10;;
72117;SDS011;59992;47.490;8.736;2024-03-25T05:17:29;2.30;;;1.10;;
72117;SDS011;59992;47.490;8.736;2024-03-25T05:20:17;2.40;;;1.00;;
72117;SDS011;59992;47.490;8.736;2024-03-25T05:23:06;2.60;;;1.30;;
72117;SDS011;59992;47.490;8.736;2024-03-25T05:25:54;2.40;;;1.30;;
72117;SDS011;59992;47.490;8.736;2024-03-25T05:28:43;2.20;;;1.50;;
72117;SDS011;59992;47.490;8.736;2024-03-25T05:31:31;2.20;;;1.20;;
72117;SDS011;59992;47.490;8.736;2024-03-25T05:34:19;2.50;;;1.20;;
72117;SDS011;59992;47.490;8.736;2024-03-25T05:37:07;2.90;;;1.60;;
72117;SDS011;59992;47.490;8.736;2024-03-25T05:39:56;3.80;;;1.40;;
72117;SDS011;59992;47.490;8.736;2024-03-25T05:42:45;4.40;;;1.40;;
72117;SDS011;59992;47.490;8.736;2024-03-25T05:45:33;2.40;;;1.30;;
72117;SDS011;59992;47.490;8.736;2024-03-25T05:48:22;2.20;;;1.30;;
72117;SDS011;59992;47.490;8.736;2024-03-25T05:51:11;4.10;;;1.40;;
72117;SDS011;59992;47.490;8.736;2024-03-25T05:53:59;4.70;;;1.50;;
72117;SDS011;59992;47.490;8.736;2024-03-25T05:56:48;5.20;;;2.00;;
72117;SDS011;59992;47.490;8.736;2024-03-25T05:59:36;3.50;;;1.50;;
72117;SDS011;59992;47.490;8.736;2024-03-25T06:02:24;4.30;;;2.10;;
72117;SDS011;59992;47.490;8.736;2024-03-25T06:05:12;5.30;;;1.90;;
72117;SDS011;59992;47.490;8.736;2024-03-25T06:08:01;5.80;;;1.90;;
72117;SDS011;59992;47.490;8.736;2024-03-25T06:10:50;3.70;;;1.80;;
72117;SDS011;59992;47.490;8.736;2024-03-25T06:13:38;2.80;;;1.40;;
72117;SDS011;59992;47.490;8.736;2024-03-25T06:16:27;2.90;;;1.80;;
72117;SDS011;59992;47.490;8.736;2024-03-25T06:19:15;3.50;;;1.60;;
72117;SDS011;59992;47.490;8.736;2024-03-25T06:22:03;7.40;;;2.30;;
72117;SDS011;59992;47.490;8.736;2024-03-25T06:24:51;5.00;;;2.40;;
72117;SDS011;59992;47.490;8.736;2024-03-25T06:27:40;5.40;;;2.20;;
72117;SDS011;59992;47.490;8.736;2024-03-25T06:30:28;5.50;;;1.80;;
72117;SDS011;59992;47.490;8.736;2024-03-25T06:33:34;4.70;;;1.40;;
72117;SDS011;59992;47.490;8.736;2024-03-25T06:36:41;2.40;;;1.30;;
72117;SDS011;59992;47.490;8.736;2024-03-25T06:39:29;3.30;;;1.30;;
72117;SDS011;59992;47.490;8.736;2024-03-25T06:42:17;2.30;;;1.10;;
72117;SDS011;59992;47.490;8.736;2024-03-25T06:45:06;2.00;;;1.20;;
72117;SDS011;59992;47.490;8.736;2024-03-25T06:47:55;2.70;;;1.10;;
72117;SDS011;59992;47.490;8.736;2024-03-25T06:50:52;2.30;;;1.20;;
72117;SDS011;59992;47.490;8.736;2024-03-25T06:53:41;2.20;;;1.10;;
72117;SDS011;59992;47.490;8.736;2024-03-25T06:56:29;2.60;;;1.10;;
72117;SDS011;59992;47.490;8.736;2024-03-25T06:59:17;2.70;;;1.00;;
72117;SDS011;59992;47.490;8.736;2024-03-25T07:02:07;1.70;;;0.90;;
72117;SDS011;59992;47.490;8.736;2024-03-25T07:04:56;2.00;;;0.90;;
72117;SDS011;59992;47.490;8.736;2024-03-25T07:07:44;2.00;;;1.00;;
72117;SDS011;59992;47.490;8.736;2024-03-25T07:10:32;2.30;;;1.10;;
72117;SDS011;59992;47.490;8.736;2024-03-25T07:13:20;2.60;;;0.90;;
72117;SDS011;59992;47.490;8.736;2024-03-25T07:16:09;3.30;;;1.10;;
72117;SDS011;59992;47.490;8.736;2024-03-25T07:18:57;3.20;;;1.50;;
72117;SDS011;59992;47.490;8.736;2024-03-25T07:21:46;4.00;;;1.30;;
72117;SDS011;59992;47.490;8.736;2024-03-25T07:24:34;4.20;;;1.40;;
72117;SDS011;59992;47.490;8.736;2024-03-25T07:27:22;3.70;;;1.40;;
72117;SDS011;59992;47.490;8.736;2024-03-25T07:30:10;3.20;;;1.10;;
72117;SDS011;59992;47.490;8.736;2024-03-25T07:33:00;2.90;;;1.10;;
72117;SDS011;59992;47.490;8.736;2024-03-25T07:35:48;3.20;;;1.00;;
72117;SDS011;59992;47.490;8.736;2024-03-25T07:38:36;2.80;;;1.20;;
72117;SDS011;59992;47.490;8.736;2024-03-25T07:41:25;3.80;;;1.20;;
72117;SDS011;59992;47.490;8.736;2024-03-25T07:44:13;2.10;;;1.20;;
72117;SDS011;59992;47.490;8.736;2024-03-25T07:47:02;3.70;;;0.90;;
72117;SDS011;59992;47.490;8.736;2024-03-25T07:49:51;2.20;;;1.00;;
72117;SDS011;59992;47.490;8.736;2024-03-25T07:52:39;3.00;;;1.20;;
72117;SDS011;59992;47.490;8.736;2024-03-25T07:55:27;3.10;;;1.10;;
72117;SDS011;59992;47.490;8.736;2024-03-25T07:58:15;2.20;;;1.10;;
72117;SDS011;59992;47.490;8.736;2024-03-25T08:01:04;2.70;;;1.30;;
72117;SDS011;59992;47.490;8.736;2024-03-25T08:03:52;3.50;;;1.20;;
72117;SDS011;59992;47.490;8.736;2024-03-25T08:06:40;4.20;;;1.50;;
72117;SDS011;59992;47.490;8.736;2024-03-25T08:09:29;7.30;;;1.70;;
72117;SDS011;59992;47.490;8.736;2024-03-25T08:12:19;3.10;;;1.20;;
72117;SDS011;59992;47.490;8.736;2024-03-25T08:15:09;2.30;;;1.10;;
72117;SDS011;59992;47.490;8.736;2024-03-25T08:17:57;3.10;;;1.10;;
72117;SDS011;59992;47.490;8.736;2024-03-25T08:20:45;2.80;;;1.10;;
72117;SDS011;59992;47.490;8.736;2024-03-25T08:23:33;4.20;;;1.20;;
72117;SDS011;59992;47.490;8.736;2024-03-25T08:26:22;3.30;;;1.30;;
72117;SDS011;59992;47.490;8.736;2024-03-25T08:29:10;4.80;;;1.40;;
72117;SDS011;59992;47.490;8.736;2024-03-25T08:31:59;3.80;;;1.40;;
72117;SDS011;59992;47.490;8.736;2024-03-25T08:34:47;5.60;;;1.60;;
72117;SDS011;59992;47.490;8.736;2024-03-25T08:37:36;4.20;;;1.70;;
72117;SDS011;59992;47.490;8.736;2024-03-25T08:40:24;3.70;;;1.50;;
72117;SDS011;59992;47.490;8.736;2024-03-25T08:43:12;4.20;;;1.10;;
72117;SDS011;59992;47.490;8.736;2024-03-25T08:46:00;2.70;;;1.50;;
72117;SDS011;59992;47.490;8.736;2024-03-25T08:48:50;4.30;;;1.50;;
72117;SDS011;59992;47.490;8.736;2024-03-25T08:51:38;4.70;;;1.70;;
72117;SDS011;59992;47.490;8.736;2024-03-25T08:54:27;4.30;;;1.50;;
72117;SDS011;59992;47.490;8.736;2024-03-25T08:57:15;2.80;;;1.50;;
72117;SDS011;59992;47.490;8.736;2024-03-25T09:00:04;4.30;;;1.60;;
72117;SDS011;59992;47.490;8.736;2024-03-25T09:02:57;4.00;;;1.40;;
72117;SDS011;59992;47.490;8.736;2024-03-25T09:05:46;4.00;;;1.20;;
72117;SDS011;59992;47.490;8.736;2024-03-25T09:08:34;6.00;;;1.60;;
72117;SDS011;59992;47.490;8.736;2024-03-25T09:11:42;3.00;;;1.40;;
72117;SDS011;59992;47.490;8.736;2024-03-25T09:14:31;4.30;;;1.60;;
72117;SDS011;59992;47.490;8.736;2024-03-25T09:17:19;3.30;;;1.70;;
72117;SDS011;59992;47.490;8.736;2024-03-25T09:20:10;3.90;;;1.40;;
72117;SDS011;59992;47.490;8.736;2024-03-25T09:23:05;6.60;;;1.60;;
72117;SDS011;59992;47.490;8.736;2024-03-25T09:25:56;4.60;;;1.80;;
72117;SDS011;59992;47.490;8.736;2024-03-25T09:28:45;3.10;;;1.40;;
72117;SDS011;59992;47.490;8.736;2024-03-25T09:31:33;5.20;;;2.10;;
72117;SDS011;59992;47.490;8.736;2024-03-25T09:34:21;3.80;;;1.70;;
72117;SDS011;59992;47.490;8.736;2024-03-25T09:37:09;3.60;;;1.80;;
72117;SDS011;59992;47.490;8.736;2024-03-25T09:39:59;4.90;;;2.00;;
72117;SDS011;59992;47.490;8.736;2024-03-25T09:42:47;6.00;;;1.80;;
72117;SDS011;59992;47.490;8.736;2024-03-25T09:45:36;3.50;;;1.70;;
72117;SDS011;59992;47.490;8.736;2024-03-25T09:48:27;7.70;;;1.80;;
72117;SDS011;59992;47.490;8.736;2024-03-25T09:51:17;4.40;;;1.40;;
72117;SDS011;59992;47.490;8.736;2024-03-25T09:54:06;4.00;;;1.60;;
72117;SDS011;59992;47.490;8.736;2024-03-25T09:56:55;4.60;;;1.60;;
72117;SDS011;59992;47.490;8.736;2024-03-25T09:59:43;5.70;;;1.90;;
72117;SDS011;59992;47.490;8.736;2024-03-25T10:02:32;3.80;;;1.70;;
72117;SDS011;59992;47.490;8.736;2024-03-25T10:05:23;6.10;;;1.90;;
72117;SDS011;59992;47.490;8.736;2024-03-25T10:08:12;4.80;;;1.60;;
72117;SDS011;59992;47.490;8.736;2024-03-25T10:11:01;4.60;;;1.40;;
72117;SDS011;59992;47.490;8.736;2024-03-25T10:13:49;3.70;;;1.40;;
72117;SDS011;59992;47.490;8.736;2024-03-25T10:16:37;3.20;;;1.20;;
72117;SDS011;59992;47.490;8.736;2024-03-25T10:19:26;4.30;;;1.70;;
72117;SDS011;59992;47.490;8.736;2024-03-25T10:22:15;2.70;;;1.70;;
72117;SDS011;59992;47.490;8.736;2024-03-25T10:25:03;4.90;;;1.90;;
72117;SDS011;59992;47.490;8.736;2024-03-25T10:27:55;4.30;;;1.50;;
72117;SDS011;59992;47.490;8.736;2024-03-25T10:30:44;3.00;;;1.60;;
72117;SDS011;59992;47.490;8.736;2024-03-25T10:33:32;8.90;;;1.50;;
72117;SDS011;59992;47.490;8.736;2024-03-25T10:36:21;3.40;;;1.50;;
72117;SDS011;59992;47.490;8.736;2024-03-25T10:39:11;3.60;;;1.30;;
72117;SDS011;59992;47.490;8.736;2024-03-25T10:42:02;3.00;;;1.40;;
72117;SDS011;59992;47.490;8.736;2024-03-25T10:44:52;3.40;;;1.30;;
72117;SDS011;59992;47.490;8.736;2024-03-25T10:47:40;3.10;;;1.40;;
72117;SDS011;59992;47.490;8.736;2024-03-25T10:50:29;4.30;;;1.40;;
72117;SDS011;59992;47.490;8.736;2024-03-25T10:53:18;2.90;;;1.40;;
72117;SDS011;59992;47.490;8.736;2024-03-25T10:56:09;4.70;;;1.20;;
72117;SDS011;59992;47.490;8.736;2024-03-25T10:58:59;3.10;;;1.40;;
72117;SDS011;59992;47.490;8.736;2024-03-25T11:01:48;5.00;;;1.50;;
72117;SDS011;59992;47.490;8.736;2024-03-25T11:04:36;4.40;;;1.40;;
72117;SDS011;59992;47.490;8.736;2024-03-25T11:07:29;2.90;;;1.40;;
72117;SDS011;59992;47.490;8.736;2024-03-25T11:10:19;3.60;;;1.40;;
72117;SDS011;59992;47.490;8.736;2024-03-25T11:13:17;5.50;;;1.20;;
72117;SDS011;59992;47.490;8.736;2024-03-25T11:16:06;3.50;;;1.30;;
72117;SDS011;59992;47.490;8.736;2024-03-25T11:19:00;4.30;;;1.70;;
72117;SDS011;59992;47.490;8.736;2024-03-25T11:21:50;3.30;;;1.40;;
72117;SDS011;59992;47.490;8.736;2024-03-25T11:24:43;3.00;;;1.30;;
72117;SDS011;59992;47.490;8.736;2024-03-25T11:27:31;5.50;;;1.60;;
72117;SDS011;59992;47.490;8.736;2024-03-25T11:30:21;3.30;;;1.30;;
72117;SDS011;59992;47.490;8.736;2024-03-25T11:33:13;2.70;;;1.30;;
72117;SDS011;59992;47.490;8.736;2024-03-25T11:36:01;3.70;;;1.60;;
72117;SDS011;59992;47.490;8.736;2024-03-25T11:38:57;2.10;;;1.30;;
72117;SDS011;59992;47.490;8.736;2024-03-25T11:41:46;2.30;;;1.10;;
72117;SDS011;59992;47.490;8.736;2024-03-25T11:44:36;3.30;;;1.20;;
72117;SDS011;59992;47.490;8.736;2024-03-25T11:47:27;2.50;;;1.10;;
72117;SDS011;59992;47.490;8.736;2024-03-25T11:50:16;1.50;;;0.80;;
72117;SDS011;59992;47.490;8.736;2024-03-25T11:53:05;3.10;;;0.90;;
72117;SDS011;59992;47.490;8.736;2024-03-25T11:55:54;2.60;;;0.90;;
72117;SDS011;59992;47.490;8.736;2024-03-25T11:58:43;2.30;;;1.00;;
72117;SDS011;59992;47.490;8.736;2024-03-25T12:01:33;2.30;;;1.00;;
72117;SDS011;59992;47.490;8.736;2024-03-25T12:04:21;1.40;;;0.70;;
72117;SDS011;59992;47.490;8.736;2024-03-25T12:07:12;2.60;;;0.70;;
72117;SDS011;59992;47.490;8.736;2024-03-25T12:10:00;2.70;;;0.80;;
72117;SDS011;59992;47.490;8.736;2024-03-25T12:13:07;3.80;;;0.90;;
72117;SDS011;59992;47.490;8.736;2024-03-25T12:15:55;4.00;;;1.20;;
72117;SDS011;59992;47.490;8.736;2024-03-25T12:18:44;2.50;;;0.90;;
72117;SDS011;59992;47.490;8.736;2024-03-25T12:21:32;2.00;;;0.90;;
72117;SDS011;59992;47.490;8.736;2024-03-25T12:24:23;2.30;;;1.00;;
72117;SDS011;59992;47.490;8.736;2024-03-25T12:27:11;2.80;;;1.00;;
72117;SDS011;59992;47.490;8.736;2024-03-25T12:30:00;2.80;;;1.20;;
72117;SDS011;59992;47.490;8.736;2024-03-25T12:32:50;2.70;;;1.00;;
72117;SDS011;59992;47.490;8.736;2024-03-25T12:35:38;2.00;;;0.90;;
72117;SDS011;59992;47.490;8.736;2024-03-25T12:38:27;2.60;;;1.20;;
72117;SDS011;59992;47.490;8.736;2024-03-25T12:41:17;3.00;;;0.90;;
72117;SDS011;59992;47.490;8.736;2024-03-25T12:44:09;6.90;;;1.30;;
72117;SDS011;59992;47.490;8.736;2024-03-25T12:46:59;2.80;;;0.90;;
72117;SDS011;59992;47.490;8.736;2024-03-25T12:49:47;1.50;;;0.90;;
72117;SDS011;59992;47.490;8.736;2024-03-25T12:52:37;2.30;;;1.00;;
72117;SDS011;59992;47.490;8.736;2024-03-25T12:55:26;2.50;;;1.00;;
72117;SDS011;59992;47.490;8.736;2024-03-25T12:58:14;2.10;;;1.20;;
72117;SDS011;59992;47.490;8.736;2024-03-25T13:01:02;2.30;;;1.30;;
72117;SDS011;59992;47.490;8.736;2024-03-25T13:03:51;3.80;;;1.20;;
72117;SDS011;59992;47.490;8.736;2024-03-25T13:06:39;2.30;;;1.20;;
72117;SDS011;59992;47.490;8.736;2024-03-25T13:09:27;2.80;;;1.20;;
72117;SDS011;59992;47.490;8.736;2024-03-25T13:12:16;2.30;;;1.40;;
72117;SDS011;59992;47.490;8.736;2024-03-25T13:15:05;3.60;;;1.30;;
72117;SDS011;59992;47.490;8.736;2024-03-25T13:17:55;2.30;;;1.20;;
72117;SDS011;59992;47.490;8.736;2024-03-25T13:20:43;2.30;;;1.50;;
72117;SDS011;59992;47.490;8.736;2024-03-25T13:23:32;3.00;;;1.10;;
72117;SDS011;59992;47.490;8.736;2024-03-25T13:26:19;4.40;;;1.40;;
72117;SDS011;59992;47.490;8.736;2024-03-25T13:29:09;2.50;;;1.30;;
72117;SDS011;59992;47.490;8.736;2024-03-25T13:31:57;2.00;;;1.10;;
72117;SDS011;59992;47.490;8.736;2024-03-25T13:34:45;2.70;;;1.20;;
72117;SDS011;59992;47.490;8.736;2024-03-25T13:37:33;2.10;;;1.20;;
72117;SDS011;59992;47.490;8.736;2024-03-25T13:40:21;3.10;;;1.20;;
72117;SDS011;59992;47.490;8.736;2024-03-25T13:43:09;2.50;;;1.30;;
72117;SDS011;59992;47.490;8.736;2024-03-25T13:45:58;2.40;;;1.20;;
72117;SDS011;59992;47.490;8.736;2024-03-25T13:48:47;2.60;;;1.30;;
72117;SDS011;59992;47.490;8.736;2024-03-25T13:51:35;3.30;;;1.10;;
72117;SDS011;59992;47.490;8.736;2024-03-25T13:54:23;2.90;;;1.20;;
72117;SDS011;59992;47.490;8.736;2024-03-25T13:57:12;2.20;;;1.20;;
72117;SDS011;59992;47.490;8.736;2024-03-25T14:00:01;2.70;;;1.00;;
72117;SDS011;59992;47.490;8.736;2024-03-25T14:02:55;3.30;;;1.00;;
72117;SDS011;59992;47.490;8.736;2024-03-25T14:05:42;2.10;;;1.00;;
72117;SDS011;59992;47.490;8.736;2024-03-25T14:08:31;2.90;;;1.00;;
72117;SDS011;59992;47.490;8.736;2024-03-25T14:11:19;3.10;;;1.00;;
72117;SDS011;59992;47.490;8.736;2024-03-25T14:14:08;3.50;;;0.90;;
72117;SDS011;59992;47.490;8.736;2024-03-25T14:16:57;1.30;;;0.70;;
72117;SDS011;59992;47.490;8.736;2024-03-25T14:19:45;1.40;;;0.70;;
72117;SDS011;59992;47.490;8.736;2024-03-25T14:22:33;1.60;;;0.80;;
72117;SDS011;59992;47.490;8.736;2024-03-25T14:25:21;1.60;;;0.90;;
72117;SDS011;59992;47.490;8.736;2024-03-25T14:28:09;2.70;;;0.90;;
72117;SDS011;59992;47.490;8.736;2024-03-25T14:30:57;1.20;;;0.70;;
72117;SDS011;59992;47.490;8.736;2024-03-25T14:33:45;2.10;;;0.80;;
72117;SDS011;59992;47.490;8.736;2024-03-25T14:36:33;2.10;;;0.90;;
72117;SDS011;59992;47.490;8.736;2024-03-25T14:39:22;1.90;;;0.70;;
72117;SDS011;59992;47.490;8.736;2024-03-25T14:42:10;0.90;;;0.60;;
72117;SDS011;59992;47.490;8.736;2024-03-25T14:44:58;1.10;;;0.60;;
72117;SDS011;59992;47.490;8.736;2024-03-25T14:47:47;2.00;;;0.80;;
72117;SDS011;59992;47.490;8.736;2024-03-25T14:50:36;1.60;;;0.80;;
72117;SDS011;59992;47.490;8.736;2024-03-25T14:53:24;3.30;;;0.90;;
72117;SDS011;59992;47.490;8.736;2024-03-25T14:56:12;2.70;;;0.90;;
72117;SDS011;59992;47.490;8.736;2024-03-25T14:59:01;1.50;;;0.80;;
72117;SDS011;59992;47.490;8.736;2024-03-25T15:01:50;0.90;;;0.60;;
72117;SDS011;59992;47.490;8.736;2024-03-25T15:04:38;1.50;;;0.70;;
72117;SDS011;59992;47.490;8.736;2024-03-25T15:07:30;3.00;;;0.70;;
72117;SDS011;59992;47.490;8.736;2024-03-25T15:10:19;2.30;;;0.80;;
72117;SDS011;59992;47.490;8.736;2024-03-25T15:13:09;1.30;;;0.80;;
72117;SDS011;59992;47.490;8.736;2024-03-25T15:15:57;3.40;;;0.90;;
72117;SDS011;59992;47.490;8.736;2024-03-25T15:18:45;1.50;;;0.70;;
72117;SDS011;59992;47.490;8.736;2024-03-25T15:21:33;1.50;;;0.70;;
72117;SDS011;59992;47.490;8.736;2024-03-25T15:24:23;1.90;;;0.70;;
72117;SDS011;59992;47.490;8.736;2024-03-25T15:27:11;2.20;;;0.60;;
72117;SDS011;59992;47.490;8.736;2024-03-25T15:29:59;1.80;;;0.70;;
72117;SDS011;59992;47.490;8.736;2024-03-25T15:32:47;1.60;;;0.60;;
72117;SDS011;59992;47.490;8.736;2024-03-25T15:35:35;1.30;;;0.60;;
72117;SDS011;59992;47.490;8.736;2024-03-25T15:38:24;0.90;;;0.60;;
72117;SDS011;59992;47.490;8.736;2024-03-25T15:41:12;1.30;;;0.50;;
72117;SDS011;59992;47.490;8.736;2024-03-25T15:44:02;1.80;;;0.70;;
72117;SDS011;59992;47.490;8.736;2024-03-25T15:46:50;1.70;;;0.70;;
72117;SDS011;59992;47.490;8.736;2024-03-25T15:49:38;3.00;;;0.70;;
72117;SDS011;59992;47.490;8.736;2024-03-25T15:52:26;2.70;;;0.60;;
72117;SDS011;59992;47.490;8.736;2024-03-25T15:55:15;1.40;;;0.90;;
72117;SDS011;59992;47.490;8.736;2024-03-25T15:58:03;2.60;;;0.80;;
72117;SDS011;59992;47.490;8.736;2024-03-25T16:00:51;2.50;;;0.60;;
72117;SDS011;59992;47.490;8.736;2024-03-25T16:03:39;0.80;;;0.50;;
72117;SDS011;59992;47.490;8.736;2024-03-25T16:06:27;2.20;;;0.80;;
72117;SDS011;59992;47.490;8.736;2024-03-25T16:09:16;1.20;;;0.60;;
72117;SDS011;59992;47.490;8.736;2024-03-25T16:12:06;1.20;;;0.50;;
72117;SDS011;59992;47.490;8.736;2024-03-25T16:14:54;1.30;;;0.80;;
72117;SDS011;59992;47.490;8.736;2024-03-25T16:17:43;2.20;;;0.60;;
72117;SDS011;59992;47.490;8.736;2024-03-25T16:20:31;1.90;;;0.60;;
72117;SDS011;59992;47.490;8.736;2024-03-25T16:23:20;2.20;;;0.70;;
72117;SDS011;59992;47.490;8.736;2024-03-25T16:26:08;2.40;;;0.50;;
72117;SDS011;59992;47.490;8.736;2024-03-25T16:28:57;1.50;;;0.60;;
72117;SDS011;59992;47.490;8.736;2024-03-25T16:31:45;2.00;;;0.60;;
72117;SDS011;59992;47.490;8.736;2024-03-25T16:34:34;2.00;;;0.50;;
72117;SDS011;59992;47.490;8.736;2024-03-25T16:37:22;1.70;;;0.70;;
72117;SDS011;59992;47.490;8.736;2024-03-25T16:40:11;1.90;;;0.60;;
72117;SDS011;59992;47.490;8.736;2024-03-25T16:42:59;2.40;;;0.70;;
72117;SDS011;59992;47.490;8.736;2024-03-25T16:45:47;1.90;;;0.60;;
72117;SDS011;59992;47.490;8.736;2024-03-25T16:48:35;1.50;;;0.70;;
72117;SDS011;59992;47.490;8.736;2024-03-25T16:51:23;1.40;;;0.70;;
72117;SDS011;59992;47.490;8.736;2024-03-25T16:54:12;1.80;;;0.90;;
72117;SDS011;59992;47.490;8.736;2024-03-25T16:57:00;1.80;;;0.80;;
72117;SDS011;59992;47.490;8.736;2024-03-25T16:59:49;1.60;;;0.70;;